Schedule Details


Flight Number: CTN313
Departure: Adem Jashari (BKPR) at 05:45
Arrival: Franjo Tudman (LDZA) at 07:20
Route: SARAX T217 TETOV T198 MAVAR Y400 RETRA L604 BOSNA L608 KOMAR L187 TEBLI

Weather Information
BKPR 170030Z 00000KT 9999 SCT030 BKN050 07/05 Q1021 NOSIG
LDZA 170030Z 24003KT 0300 R04/0500N R22/1400D FG VV002 03/02 Q1022 NOSIG
Schedule Frequency

Route Map